Time;durP1;ratioP1;P1;durP2;ratioP2;P2;SDS_P1;SDS_P2;PMS_P1;PMS_P2;Temp;Humidity;BMP_temperature;BMP_pressure;BME280_temperature;BME280_humidity;BME280_pressure;Samples;Min_cycle;Max_cycle;Signal;HPM_P1;HPM_P2
2023/12/13 00:05:01;;;;;;;2.28;1.33;;;;;;;6.69;69.56;98254.34;10395041;28;20541;-64
2023/12/13 00:10:04;;;;;;;3.80;2.03;;;;;;;6.83;69.40;98261.16;10393657;28;20410;-64
2023/12/13 00:15:07;;;;;;;11.88;2.80;;;;;;;7.09;70.71;98247.13;10393391;28;20076;-64
2023/12/13 00:20:09;;;;;;;2.42;1.40;;;;;;;7.38;69.96;98240.66;10394732;28;20454;-64
2023/12/13 00:25:11;;;;;;;1.95;1.15;;;;;;;7.44;70.49;98236.75;10393183;28;20227;-63
2023/12/13 00:30:13;;;;;;;1.27;0.85;;;;;;;7.58;70.44;98234.81;10397136;28;20061;-64
2023/12/13 00:35:15;;;;;;;1.98;1.08;;;;;;;7.56;70.78;98228.88;10394349;28;20057;-62
2023/12/13 00:40:18;;;;;;;1.88;0.88;;;;;;;7.71;70.70;98225.13;10394061;28;20049;-62
2023/12/13 00:45:20;;;;;;;4.32;1.10;;;;;;;7.67;70.12;98223.69;10395100;28;20046;-62
2023/12/13 00:50:22;;;;;;;1.90;1.30;;;;;;;7.49;70.63;98219.06;10393492;28;20068;-62
2023/12/13 00:55:25;;;;;;;3.55;1.88;;;;;;;7.38;70.86;98222.44;10393945;28;20045;-62
2023/12/13 01:00:27;;;;;;;3.15;1.77;;;;;;;7.34;70.93;98215.81;10398066;28;20045;-62
2023/12/13 01:05:29;;;;;;;4.63;1.85;;;;;;;7.28;71.35;98220.63;10403612;28;20073;-62
2023/12/13 01:10:31;;;;;;;3.58;1.58;;;;;;;7.26;71.24;98225.94;10401556;28;20144;-62
2023/12/13 01:15:34;;;;;;;3.60;1.60;;;;;;;7.20;71.67;98223.81;10402961;28;20552;-62
2023/12/13 01:20:36;;;;;;;3.13;1.85;;;;;;;7.31;71.20;98217.78;10415791;28;20058;-63
2023/12/13 01:25:38;;;;;;;3.40;1.30;;;;;;;7.35;70.88;98219.22;10401259;28;20044;-63
2023/12/13 01:30:40;;;;;;;4.25;1.35;;;;;;;7.37;70.99;98215.56;10401669;28;20103;-63
2023/12/13 01:35:42;;;;;;;2.45;1.30;;;;;;;7.46;70.60;98221.88;10401487;28;20410;-63
2023/12/13 01:40:50;;;;;;;4.80;2.28;;;;;;;7.47;70.44;98218.34;10402675;28;20053;-64
2023/12/13 01:46:15;;;;;;;1.02;0.80;;;;;;;7.40;69.84;98235.34;10400213;28;20573;-63
2023/12/13 01:51:17;;;;;;;2.78;0.95;;;;;;;7.25;69.94;98236.44;10399087;28;20053;-63
2023/12/13 01:56:20;;;;;;;1.08;0.90;;;;;;;7.20;69.80;98234.19;10399203;28;20055;-64
2023/12/13 02:01:22;;;;;;;1.55;0.90;;;;;;;7.03;69.96;98242.38;10400493;28;20522;-63
2023/12/13 02:06:24;;;;;;;1.67;1.08;;;;;;;6.87;69.78;98239.22;10400111;28;20034;-63
2023/12/13 02:11:26;;;;;;;2.55;1.27;;;;;;;6.79;69.84;98244.97;10399653;28;20076;-63
2023/12/13 02:16:29;;;;;;;4.25;1.73;;;;;;;6.73;69.92;98245.41;10397802;28;20053;-63
2023/12/13 02:21:31;;;;;;;19.90;1.92;;;;;;;6.62;69.91;98234.09;10403476;28;20046;-63
2023/12/13 02:26:39;;;;;;;5.88;1.67;;;;;;;6.51;69.90;98239.22;10404409;28;20729;-63
2023/12/13 02:31:43;;;;;;;1.83;1.00;;;;;;;6.43;70.24;98236.34;10397337;28;20048;-63
2023/12/13 02:36:46;;;;;;;1.83;1.00;;;;;;;6.44;69.96;98240.59;10380751;28;20054;-63
2023/12/13 02:41:47;;;;;;;1.63;0.90;;;;;;;6.40;70.07;98232.19;10396466;28;20541;-63
2023/12/13 02:46:49;;;;;;;4.03;1.00;;;;;;;6.40;69.98;98232.19;10401790;28;20038;-63
2023/12/13 02:51:51;;;;;;;4.10;1.67;;;;;;;6.36;70.21;98225.53;10397945;28;20262;-63
2023/12/13 02:56:53;;;;;;;0.95;0.77;;;;;;;6.39;70.26;98214.13;10400862;28;20049;-63
2023/12/13 03:01:56;;;;;;;4.72;1.00;;;;;;;6.50;70.43;98212.44;10400732;28;20060;-63
2023/12/13 03:06:58;;;;;;;1.30;0.85;;;;;;;6.64;70.22;98203.66;10397276;28;20056;-63
2023/12/13 03:12:00;;;;;;;5.95;1.55;;;;;;;6.67;69.80;98214.69;10399480;28;20052;-63
2023/12/13 03:17:02;;;;;;;2.03;1.33;;;;;;;6.54;69.80;98206.06;10397671;28;20103;-64
2023/12/13 03:22:05;;;;;;;2.50;1.20;;;;;;;6.51;69.86;98195.09;10397701;28;20045;-63
2023/12/13 03:27:07;;;;;;;0.60;0.60;;;;;;;6.48;69.96;98188.34;10396354;28;20528;-64
2023/12/13 03:32:09;;;;;;;2.00;1.10;;;;;;;6.44;69.66;98192.09;10395887;28;20128;-63
2023/12/13 03:37:11;;;;;;;17.80;1.67;;;;;;;6.31;69.70;98183.47;10396916;28;20228;-63
2023/12/13 03:42:13;;;;;;;1.17;1.00;;;;;;;6.07;69.81;98183.41;10396625;28;20041;-64
2023/12/13 03:47:15;;;;;;;4.63;1.05;;;;;;;5.92;70.14;98176.66;10395064;28;20064;-63
2023/12/13 03:52:17;;;;;;;1.45;1.27;;;;;;;5.71;70.21;98179.91;10393372;28;20094;-63
2023/12/13 03:57:19;;;;;;;4.65;1.40;;;;;;;5.60;70.25;98183.22;10395479;28;20041;-64
2023/12/13 04:02:21;;;;;;;2.03;1.35;;;;;;;5.60;70.39;98188.41;10395054;28;20592;-63
2023/12/13 04:07:23;;;;;;;4.15;1.55;;;;;;;5.49;70.27;98189.09;10395082;28;20053;-63
2023/12/13 04:12:25;;;;;;;2.17;1.10;;;;;;;5.45;70.36;98192.03;10395747;28;20469;-63
2023/12/13 04:17:28;;;;;;;4.03;1.70;;;;;;;5.32;70.22;98185.97;10392382;28;20059;-64
2023/12/13 04:22:30;;;;;;;28.67;1.55;;;;;;;5.26;70.16;98188.97;10395246;28;20139;-64
2023/12/13 04:27:32;;;;;;;85.90;4.22;;;;;;;5.18;70.13;98175.69;10393233;28;20127;-64
2023/12/13 04:32:35;;;;;;;5.40;0.90;;;;;;;5.18;70.09;98176.53;10393980;28;20049;-63
2023/12/13 04:37:40;;;;;;;2.60;1.00;;;;;;;5.22;70.11;98182.34;10393361;28;20058;-64
2023/12/13 04:42:42;;;;;;;2.55;1.15;;;;;;;5.32;70.03;98181.63;10393700;28;20102;-63
2023/12/13 04:47:44;;;;;;;6.07;1.35;;;;;;;5.60;69.95;98170.25;10400622;28;20425;-64
2023/12/13 04:52:47;;;;;;;60.10;2.50;;;;;;;5.78;69.76;98169.00;10394253;28;20433;-64
2023/12/13 04:57:49;;;;;;;25.58;1.40;;;;;;;5.91;69.38;98176.78;10393332;28;21381;-64
2023/12/13 05:02:51;;;;;;;2.00;1.10;;;;;;;6.02;69.29;98172.50;10395325;28;20057;-63
2023/12/13 05:07:53;;;;;;;1.40;0.85;;;;;;;6.08;69.10;98169.47;10398669;28;20058;-63
2023/12/13 05:12:55;;;;;;;1.00;0.82;;;;;;;6.15;69.07;98164.69;10392835;28;20573;-64
2023/12/13 05:17:57;;;;;;;2.00;0.90;;;;;;;6.15;68.98;98160.34;10390368;28;20049;-63
2023/12/13 05:22:59;;;;;;;2.70;0.90;;;;;;;6.08;68.77;98158.28;10394038;28;20262;-62
2023/12/13 05:28:01;;;;;;;2.63;1.30;;;;;;;6.05;68.88;98154.13;10392978;28;20405;-62
2023/12/13 05:33:04;;;;;;;2.20;1.33;;;;;;;6.00;68.84;98161.38;10393372;28;20044;-62
2023/12/13 05:38:06;;;;;;;5.03;1.60;;;;;;;6.01;68.64;98142.31;10392111;28;20057;-63
2023/12/13 05:43:08;;;;;;;1.92;1.42;;;;;;;5.98;68.62;98146.88;10402676;28;20746;-63
2023/12/13 05:48:13;;;;;;;3.63;1.30;;;;;;;5.97;68.43;98130.47;10397973;28;20096;-63
2023/12/13 05:53:15;;;;;;;3.35;1.60;;;;;;;5.83;68.25;98130.63;10398226;28;20067;-62
2023/12/13 05:58:17;;;;;;;4.00;1.25;;;;;;;5.72;68.43;98129.66;10402276;28;20054;-63
2023/12/13 06:03:19;;;;;;;1.70;1.20;;;;;;;5.66;68.41;98143.91;10400304;28;20092;-63
2023/12/13 06:08:21;;;;;;;17.17;1.35;;;;;;;5.40;68.45;98139.66;10398774;28;20653;-62
2023/12/13 06:13:23;;;;;;;8.40;2.20;;;;;;;5.33;68.67;98144.41;10399457;28;20390;-63
2023/12/13 06:18:25;;;;;;;2.17;1.20;;;;;;;5.26;68.79;98153.53;10397552;28;20529;-63
2023/12/13 06:23:28;;;;;;;2.58;1.25;;;;;;;5.22;69.05;98152.06;10399642;28;20045;-62
2023/12/13 06:28:30;;;;;;;2.45;1.40;;;;;;;5.38;69.02;98141.50;10400392;28;20033;-63
2023/12/13 06:33:32;;;;;;;7.03;1.92;;;;;;;5.47;68.76;98133.13;10399046;28;20084;-62
2023/12/13 06:38:34;;;;;;;7.18;2.08;;;;;;;5.53;68.84;98132.72;10398958;28;20092;-63
2023/12/13 06:43:36;;;;;;;3.47;1.60;;;;;;;5.57;68.75;98132.38;10398701;28;20049;-62
2023/12/13 06:48:38;;;;;;;7.53;2.10;;;;;;;5.66;68.53;98136.13;10397715;28;20064;-62
2023/12/13 06:53:40;;;;;;;13.55;2.40;;;;;;;5.63;68.49;98133.75;10397581;28;20045;-63
2023/12/13 06:58:42;;;;;;;4.43;1.88;;;;;;;5.63;68.42;98123.38;10392589;28;20049;-63
2023/12/13 07:03:44;;;;;;;2.38;1.30;;;;;;;5.73;68.62;98126.16;10387897;28;20050;-63
2023/12/13 07:08:46;;;;;;;3.65;1.60;;;;;;;5.88;68.53;98118.13;10395419;28;20041;-63
2023/12/13 07:13:48;;;;;;;4.13;1.98;;;;;;;5.93;68.39;98112.63;10393725;28;20045;-64
2023/12/13 07:18:52;;;;;;;4.05;1.90;;;;;;;5.98;68.45;98120.94;10394101;28;20049;-64
2023/12/13 07:23:55;;;;;;;4.13;2.30;;;;;;;6.03;68.47;98124.03;10379373;28;20528;-65
2023/12/13 07:28:57;;;;;;;3.42;2.08;;;;;;;6.19;68.29;98119.41;10394943;28;20069;-65
2023/12/13 07:34:02;;;;;;;3.50;1.98;;;;;;;6.26;68.00;98121.53;10394544;28;20041;-66
2023/12/13 07:39:05;;;;;;;6.15;2.63;;;;;;;6.29;67.95;98126.50;10393361;28;20061;-65
2023/12/13 07:44:07;;;;;;;4.70;2.42;;;;;;;6.21;68.03;98128.75;10393162;28;20049;-65
2023/12/13 07:49:09;;;;;;;4.38;2.25;;;;;;;6.28;68.26;98136.97;10393416;28;20405;-65
2023/12/13 07:54:15;;;;;;;4.55;2.40;;;;;;;6.45;68.21;98141.00;10394049;28;20477;-64
2023/12/13 07:59:18;;;;;;;2.95;1.80;;;;;;;6.58;68.04;98128.75;10394696;28;20595;-65
2023/12/13 08:04:20;;;;;;;6.63;2.08;;;;;;;6.69;67.80;98134.88;10391962;28;20501;-65
2023/12/13 08:09:23;;;;;;;5.03;2.55;;;;;;;6.77;67.66;98132.53;10388813;28;20451;-65
2023/12/13 08:14:30;;;;;;;5.43;2.80;;;;;;;6.57;67.67;98133.13;10392113;28;20057;-64
2023/12/13 08:19:32;;;;;;;9.27;3.00;;;;;;;6.59;67.89;98136.47;10393418;28;20132;-64
2023/12/13 08:24:34;;;;;;;6.05;2.50;;;;;;;6.55;67.71;98142.00;10390355;28;20136;-64
2023/12/13 08:29:36;;;;;;;5.43;2.58;;;;;;;6.75;67.95;98141.38;10393529;28;20222;-65
2023/12/13 08:34:40;;;;;;;4.13;2.22;;;;;;;6.98;67.77;98143.09;10387951;28;20561;-67
2023/12/13 08:39:42;;;;;;;4.57;2.40;;;;;;;7.08;67.70;98137.13;10391726;28;20429;-67
2023/12/13 08:44:44;;;;;;;3.45;2.13;;;;;;;7.24;67.50;98133.41;10391213;28;20073;-67
2023/12/13 08:49:46;;;;;;;4.18;2.22;;;;;;;7.39;67.15;98140.03;10391535;28;20059;-67
2023/12/13 08:54:48;;;;;;;4.35;2.38;;;;;;;7.40;67.10;98136.50;10391222;28;20050;-68
2023/12/13 08:59:50;;;;;;;2.88;1.80;;;;;;;7.44;67.44;98130.97;10392219;28;20425;-68
2023/12/13 09:05:07;;;;;;;2.90;2.00;;;;;;;7.60;67.03;98134.06;10391289;28;20175;-67
2023/12/13 09:10:09;;;;;;;6.35;2.30;;;;;;;7.73;67.09;98133.97;10404796;28;20045;-67
2023/12/13 09:15:11;;;;;;;2.42;1.55;;;;;;;7.80;66.88;98138.56;10392781;28;20071;-66
2023/12/13 09:20:16;;;;;;;5.35;2.20;;;;;;;7.71;66.93;98148.88;10392914;28;20146;-68
2023/12/13 09:25:19;;;;;;;3.22;1.90;;;;;;;7.57;67.04;98149.09;10383429;28;20532;-68
2023/12/13 09:30:21;;;;;;;6.10;2.25;;;;;;;7.63;67.19;98159.03;10397336;28;20416;-68
2023/12/13 09:35:23;;;;;;;3.10;1.95;;;;;;;7.79;66.99;98162.91;10395686;28;20041;-68
2023/12/13 09:40:25;;;;;;;3.20;1.83;;;;;;;7.99;67.19;98170.06;10399652;28;20077;-68
2023/12/13 09:45:28;;;;;;;4.63;1.90;;;;;;;8.26;66.84;98167.09;10401270;28;20045;-68
2023/12/13 09:50:34;;;;;;;3.60;2.13;;;;;;;8.39;66.32;98179.97;10399641;28;20048;-68
2023/12/13 09:55:37;;;;;;;5.90;2.45;;;;;;;7.92;66.98;98186.25;10398047;28;20037;-68
2023/12/13 10:00:41;;;;;;;6.03;1.95;;;;;;;7.89;67.24;98187.31;10401525;28;20041;-67
2023/12/13 10:05:47;;;;;;;4.43;1.83;;;;;;;8.18;67.20;98184.28;10402019;28;20053;-68
2023/12/13 10:10:50;;;;;;;4.50;2.45;;;;;;;8.37;67.12;98174.06;10396789;28;20037;-68
2023/12/13 10:15:52;;;;;;;5.93;2.17;;;;;;;8.50;66.91;98185.19;10393632;28;20072;-68
2023/12/13 10:20:54;;;;;;;3.60;2.13;;;;;;;8.67;67.01;98169.88;10395796;28;20143;-67
2023/12/13 10:25:56;;;;;;;6.95;3.10;;;;;;;8.76;67.00;98176.13;10393666;28;20887;-67
2023/12/13 10:30:58;;;;;;;11.25;4.40;;;;;;;9.01;67.06;98175.81;10390539;28;20184;-67
2023/12/13 10:36:03;;;;;;;6.53;3.92;;;;;;;9.36;66.65;98168.53;10393077;28;20049;-68
2023/12/13 10:41:06;;;;;;;4.57;2.55;;;;;;;9.44;66.86;98171.34;10394447;28;20088;-67
2023/12/13 10:46:12;;;;;;;6.95;3.10;;;;;;;9.59;66.81;98179.66;10394644;28;20620;-68
2023/12/13 10:51:15;;;;;;;4.00;2.20;;;;;;;9.56;66.92;98167.69;10395474;28;20140;-68
2023/12/13 10:56:18;;;;;;;7.95;2.38;;;;;;;9.61;66.78;98162.09;10394831;28;20187;-67
2023/12/13 11:01:21;;;;;;;3.55;2.00;;;;;;;9.76;66.65;98170.47;10391950;28;20143;-68
2023/12/13 11:06:26;;;;;;;3.20;1.70;;;;;;;9.85;66.57;98167.09;10393775;28;20038;-68
2023/12/13 11:11:29;;;;;;;4.68;1.70;;;;;;;10.06;66.51;98165.25;10389491;28;20052;-68
2023/12/13 11:16:38;;;;;;;3.80;2.05;;;;;;;10.15;65.96;98164.47;10394045;28;20072;-68
2023/12/13 11:21:41;;;;;;;4.78;2.38;;;;;;;10.14;66.23;98160.19;10394785;28;20597;-66
2023/12/13 11:26:50;;;;;;;4.25;2.00;;;;;;;10.18;66.08;98161.59;10395299;28;20113;-66
2023/12/13 11:32:00;;;;;;;3.40;1.98;;;;;;;10.29;65.82;98164.13;10391534;28;20053;-68
2023/12/13 11:37:05;;;;;;;1.83;1.33;;;;;;;10.52;65.51;98154.28;10390314;28;20543;-68
2023/12/13 11:42:12;;;;;;;3.30;1.50;;;;;;;10.60;65.41;98157.88;10392180;28;20049;-68
2023/12/13 11:47:15;;;;;;;1.77;1.30;;;;;;;10.74;64.96;98154.03;10392633;28;20851;-68
2023/12/13 11:52:17;;;;;;;4.03;0.98;;;;;;;10.90;64.66;98164.78;10394988;28;20049;-68
2023/12/13 11:57:19;;;;;;;1.40;1.00;;;;;;;11.06;64.26;98155.47;10391128;28;20444;-68
2023/12/13 12:02:22;;;;;;;1.20;0.90;;;;;;;10.95;64.28;98160.81;10390684;28;20729;-68
2023/12/13 12:07:25;;;;;;;4.13;1.55;;;;;;;10.76;64.47;98157.34;10393875;28;20069;-68
2023/12/13 12:12:28;;;;;;;1.73;1.00;;;;;;;10.72;64.62;98164.66;10378050;28;20405;-68
2023/12/13 12:17:30;;;;;;;2.28;1.08;;;;;;;10.72;64.56;98164.66;10392632;28;20064;-68
2023/12/13 12:22:37;;;;;;;4.60;1.50;;;;;;;10.86;64.50;98163.41;10387500;28;20041;-68
2023/12/13 12:27:49;;;;;;;3.42;0.90;;;;;;;10.94;63.40;98155.72;10391077;28;20044;-68
2023/12/13 12:32:51;;;;;;;0.73;0.70;;;;;;;10.97;63.67;98151.03;10387673;28;20517;-68
2023/12/13 12:37:53;;;;;;;3.63;1.10;;;;;;;10.84;63.82;98144.41;10391098;28;20846;-67
2023/12/13 12:42:58;;;;;;;1.67;0.77;;;;;;;10.80;64.10;98141.25;10389385;28;21298;-67
2023/12/13 12:48:00;;;;;;;2.13;0.90;;;;;;;10.89;64.06;98137.81;10373456;28;20091;-68
2023/12/13 12:53:02;;;;;;;1.65;0.88;;;;;;;11.03;63.99;98140.00;10391753;28;20478;-67
2023/12/13 12:58:04;;;;;;;2.83;0.98;;;;;;;11.07;63.50;98135.38;10399194;28;20912;-68
2023/12/13 13:03:07;;;;;;;5.07;0.68;;;;;;;11.00;63.69;98127.22;10399109;28;20420;-68
2023/12/13 13:08:09;;;;;;;4.65;1.85;;;;;;;10.71;63.71;98130.78;10400370;28;20089;-67
2023/12/13 13:13:11;;;;;;;2.20;1.30;;;;;;;10.62;63.85;98126.38;10397663;28;20136;-68
2023/12/13 13:18:13;;;;;;;2.42;1.30;;;;;;;10.55;64.06;98133.91;10397449;28;20037;-68
2023/12/13 13:23:15;;;;;;;3.20;1.48;;;;;;;10.47;63.94;98144.22;10414707;28;20188;-68
2023/12/13 13:28:18;;;;;;;1.15;0.95;;;;;;;10.10;64.49;98143.13;10399508;28;20037;-68
2023/12/13 13:33:20;;;;;;;1.65;1.00;;;;;;;9.91;64.81;98143.06;10397446;28;20056;-68
2023/12/13 13:38:22;;;;;;;2.50;1.33;;;;;;;9.83;65.19;98140.28;10398260;28;20054;-67
2023/12/13 13:43:26;;;;;;;3.13;1.20;;;;;;;9.85;65.48;98135.75;10396814;28;20056;-68
2023/12/13 13:48:28;;;;;;;3.10;1.10;;;;;;;10.15;65.46;98146.19;10397439;28;20445;-67
2023/12/13 13:53:30;;;;;;;4.15;1.38;;;;;;;10.43;64.85;98138.44;10397090;28;20774;-67
2023/12/13 13:58:32;;;;;;;1.95;1.20;;;;;;;10.54;64.61;98142.75;10396459;28;20037;-67
2023/12/13 14:03:34;;;;;;;1.60;1.00;;;;;;;10.63;64.43;98144.53;10393997;28;20224;-66
2023/12/13 14:08:37;;;;;;;1.08;0.98;;;;;;;10.57;64.49;98146.84;10397696;28;20060;-67
2023/12/13 14:13:39;;;;;;;4.05;1.00;;;;;;;10.44;63.97;98147.09;10393148;28;20128;-66
2023/12/13 14:18:41;;;;;;;2.72;1.40;;;;;;;10.25;63.89;98149.66;10395955;28;20577;-68
2023/12/13 14:23:43;;;;;;;2.78;1.60;;;;;;;10.13;64.27;98158.56;10395458;28;20112;-68
2023/12/13 14:28:45;;;;;;;5.78;1.50;;;;;;;9.82;64.53;98149.91;10396500;28;20054;-68
2023/12/13 14:33:47;;;;;;;5.38;1.88;;;;;;;9.45;65.12;98162.56;10397851;28;20494;-66
2023/12/13 14:38:49;;;;;;;2.40;1.52;;;;;;;9.24;65.53;98163.53;10412976;28;20450;-67
2023/12/13 14:43:51;;;;;;;3.85;1.70;;;;;;;9.04;65.72;98161.69;10389534;28;20052;-67
2023/12/13 14:48:54;;;;;;;2.28;1.27;;;;;;;8.81;65.70;98163.56;10394399;28;20136;-68
2023/12/13 14:53:57;;;;;;;2.20;1.38;;;;;;;8.47;66.44;98175.00;10392091;28;20050;-68
2023/12/13 14:58:59;;;;;;;2.85;1.45;;;;;;;8.34;66.82;98185.59;10393340;28;20141;-67
2023/12/13 15:04:02;;;;;;;3.35;1.30;;;;;;;8.28;66.67;98198.25;10394659;28;20445;-67
2023/12/13 15:09:04;;;;;;;4.03;2.08;;;;;;;8.13;67.26;98204.63;10394859;28;20059;-68
2023/12/13 15:14:06;;;;;;;12.93;2.28;;;;;;;8.01;67.70;98206.38;10393967;28;20519;-67
2023/12/13 15:19:10;;;;;;;5.35;2.88;;;;;;;7.98;67.67;98223.03;10391255;28;20072;-67
2023/12/13 15:24:12;;;;;;;4.63;1.77;;;;;;;7.86;67.95;98223.16;10393019;28;20138;-67
2023/12/13 15:29:14;;;;;;;2.88;1.70;;;;;;;7.84;67.92;98225.03;10391658;28;20081;-67
2023/12/13 15:34:16;;;;;;;3.75;2.08;;;;;;;7.82;68.18;98229.53;10392811;28;21466;-68
2023/12/13 15:39:19;;;;;;;3.35;2.20;;;;;;;7.81;68.19;98236.50;10393877;28;20223;-67
2023/12/13 15:44:21;;;;;;;2.72;1.63;;;;;;;7.79;68.32;98238.38;10394586;28;20041;-64
2023/12/13 15:49:23;;;;;;;3.55;1.73;;;;;;;7.81;68.18;98252.13;10389914;28;20120;-64
2023/12/13 15:54:26;;;;;;;4.00;2.25;;;;;;;7.80;68.15;98263.47;10389641;28;20042;-64
2023/12/13 15:59:28;;;;;;;5.28;2.60;;;;;;;7.85;68.17;98261.34;10393123;28;20252;-64
2023/12/13 16:04:32;;;;;;;7.22;2.72;;;;;;;7.78;67.98;98262.75;10392054;28;20072;-64
2023/12/13 16:09:35;;;;;;;7.50;3.10;;;;;;;7.73;67.99;98272.66;10393331;28;20041;-64
2023/12/13 16:14:37;;;;;;;6.88;3.22;;;;;;;7.64;68.14;98275.13;10390176;28;20532;-64
2023/12/13 16:19:39;;;;;;;5.60;2.50;;;;;;;7.47;68.65;98278.97;10392217;28;20049;-63
2023/12/13 16:24:41;;;;;;;5.70;2.80;;;;;;;7.51;68.66;98292.59;10394548;28;20049;-63
2023/12/13 16:29:43;;;;;;;7.03;3.22;;;;;;;7.60;68.31;98295.34;10394613;28;20049;-63
2023/12/13 16:34:45;;;;;;;8.40;2.67;;;;;;;7.63;68.30;98302.91;10406232;28;20293;-64
2023/12/13 16:39:47;;;;;;;5.60;2.33;;;;;;;7.66;68.20;98299.28;10389120;28;20421;-62
2023/12/13 16:44:51;;;;;;;5.78;3.38;;;;;;;7.72;68.13;98304.03;10390438;28;20060;-64
2023/12/13 16:49:53;;;;;;;14.95;3.08;;;;;;;7.70;67.99;98317.16;10392306;28;20084;-64
2023/12/13 16:54:55;;;;;;;6.50;2.25;;;;;;;7.55;68.10;98327.88;10391542;28;20045;-64
2023/12/13 16:59:57;;;;;;;4.70;1.65;;;;;;;7.37;68.26;98335.19;10389220;28;20131;-64
2023/12/13 17:04:59;;;;;;;2.67;1.75;;;;;;;7.18;68.30;98340.06;10392001;28;20048;-63
2023/12/13 17:10:01;;;;;;;7.18;2.00;;;;;;;7.10;68.24;98345.00;10391095;28;20041;-63
2023/12/13 17:15:04;;;;;;;7.88;2.80;;;;;;;6.95;68.20;98346.06;10390524;28;20617;-64
2023/12/13 17:20:07;;;;;;;10.98;2.42;;;;;;;6.66;68.04;98363.66;10387743;28;20041;-64
2023/12/13 17:25:13;;;;;;;3.80;1.20;;;;;;;6.51;68.55;98374.28;10392164;28;20572;-63
2023/12/13 17:30:15;;;;;;;9.23;2.28;;;;;;;6.33;68.74;98381.53;10390327;28;20040;-64
2023/12/13 17:35:20;;;;;;;45.42;3.45;;;;;;;6.20;69.13;98385.84;10402673;28;20033;-64
2023/12/13 17:40:22;;;;;;;62.00;3.40;;;;;;;6.31;69.18;98397.22;10390098;28;20052;-64
2023/12/13 17:45:26;;;;;;;32.58;2.97;;;;;;;6.44;68.91;98393.78;10397048;28;20103;-64
2023/12/13 17:50:29;;;;;;;8.40;2.33;;;;;;;6.48;68.80;98410.81;10397826;28;20400;-64
2023/12/13 17:55:31;;;;;;;83.38;4.85;;;;;;;6.45;68.54;98421.44;10396217;28;20735;-65
2023/12/13 18:00:33;;;;;;;44.60;3.40;;;;;;;6.33;68.48;98417.88;10391266;28;20315;-66
2023/12/13 18:05:35;;;;;;;4.22;2.15;;;;;;;6.23;68.55;98419.38;10395796;28;20045;-64
2023/12/13 18:10:41;;;;;;;4.13;1.90;;;;;;;6.22;68.59;98428.13;10392540;28;20572;-64
2023/12/13 18:15:48;;;;;;;18.98;2.35;;;;;;;6.26;68.39;98447.78;10379995;28;20387;-64
2023/12/13 18:20:53;;;;;;;20.42;3.05;;;;;;;6.34;68.24;98459.34;10395343;28;20131;-64
2023/12/13 18:25:56;;;;;;;13.68;2.47;;;;;;;6.24;68.32;98462.59;10394847;28;20053;-64
2023/12/13 18:30:58;;;;;;;71.88;3.67;;;;;;;6.09;67.99;98467.00;10395103;28;20529;-65
2023/12/13 18:36:03;;;;;;;78.68;4.22;;;;;;;6.02;68.36;98470.09;10394324;28;20518;-65
2023/12/13 18:41:08;;;;;;;87.80;3.72;;;;;;;5.96;68.20;98481.69;10391269;28;20067;-64
2023/12/13 18:46:10;;;;;;;3.80;2.00;;;;;;;5.96;68.24;98486.88;10393874;28;20108;-65
2023/12/13 18:51:13;;;;;;;6.05;2.17;;;;;;;6.02;68.31;98496.06;10392324;28;20053;-65
2023/12/13 18:56:15;;;;;;;17.48;3.05;;;;;;;6.06;68.05;98503.53;10395170;28;20040;-64
2023/12/13 19:01:17;;;;;;;6.05;2.85;;;;;;;6.06;68.08;98508.72;10391882;28;20132;-65
2023/12/13 19:06:19;;;;;;;46.17;2.88;;;;;;;6.02;68.21;98502.06;10410371;28;20073;-64
2023/12/13 19:11:21;;;;;;;5.80;1.92;;;;;;;6.08;68.32;98513.84;10392548;28;20056;-65
2023/12/13 19:16:28;;;;;;;39.55;2.25;;;;;;;6.22;67.95;98514.63;10392358;28;20125;-64
2023/12/13 19:21:39;;;;;;;3.75;2.25;;;;;;;6.25;68.01;98531.78;10392023;28;20068;-64
2023/12/13 19:26:42;;;;;;;3.83;2.05;;;;;;;6.23;67.87;98538.78;10392908;28;20037;-64
2023/12/13 19:38:38;;;;;;;3.67;2.08;;;;;;;5.78;68.40;98555.50;10542406;27;20178;-64
2023/12/13 19:43:41;;;;;;;6.43;2.13;;;;;;;5.84;68.52;98572.47;10545058;28;20050;-64
2023/12/13 19:48:45;;;;;;;21.27;2.72;;;;;;;5.85;68.46;98572.38;10544012;28;20380;-64
2023/12/13 19:53:47;;;;;;;3.03;1.65;;;;;;;5.90;68.34;98575.50;10525795;28;20044;-64
2023/12/13 19:58:50;;;;;;;14.35;2.15;;;;;;;5.90;68.28;98577.28;10544412;28;20048;-65
2023/12/13 20:03:52;;;;;;;4.85;2.03;;;;;;;5.88;68.33;98587.72;10546908;28;20167;-64
2023/12/13 20:08:54;;;;;;;7.93;2.92;;;;;;;5.99;68.31;98594.84;10546247;28;20052;-65
2023/12/13 20:13:56;;;;;;;7.78;2.97;;;;;;;6.08;68.31;98602.88;10545838;28;20075;-65
2023/12/13 20:19:01;;;;;;;49.13;3.95;;;;;;;6.08;68.06;98610.66;10527615;28;20464;-65
2023/12/13 20:24:03;;;;;;;4.82;1.73;;;;;;;6.10;68.25;98616.59;10525059;28;20073;-65
2023/12/13 20:29:08;;;;;;;5.07;2.15;;;;;;;6.12;68.08;98632.91;10544231;28;20040;-65
2023/12/13 20:34:10;;;;;;;6.00;2.28;;;;;;;6.20;67.95;98635.88;10545468;28;20564;-64
2023/12/13 20:39:12;;;;;;;46.63;3.05;;;;;;;6.06;67.75;98653.25;10542220;28;20109;-65
2023/12/13 20:44:14;;;;;;;4.20;1.70;;;;;;;5.97;67.90;98654.63;10544499;28;20040;-65
2023/12/13 20:49:16;;;;;;;6.00;1.77;;;;;;;5.91;68.09;98659.34;10502558;28;20427;-65
2023/12/13 20:54:20;;;;;;;6.00;2.10;;;;;;;5.90;68.17;98665.50;10512887;28;20051;-65
2023/12/13 20:59:25;;;;;;;7.32;2.60;;;;;;;5.84;68.23;98678.84;10514482;28;20048;-64
2023/12/13 21:04:29;;;;;;;15.07;2.05;;;;;;;5.84;68.12;98684.84;10514250;28;20123;-65
2023/12/13 21:09:31;;;;;;;4.22;2.13;;;;;;;5.85;68.37;98691.72;10515643;28;20052;-65
2023/12/13 21:14:33;;;;;;;5.22;2.08;;;;;;;5.83;68.17;98697.91;10514399;28;20100;-66
2023/12/13 21:19:35;;;;;;;5.68;1.90;;;;;;;5.74;68.08;98704.47;10495317;28;20138;-66
2023/12/13 21:24:37;;;;;;;8.75;2.53;;;;;;;5.66;68.24;98717.06;10494937;28;20395;-65
2023/12/13 21:29:39;;;;;;;15.15;2.75;;;;;;;5.62;68.41;98717.34;10478180;28;20535;-65
2023/12/13 21:34:41;;;;;;;7.88;2.42;;;;;;;5.57;68.32;98728.81;10513757;28;20653;-65
2023/12/13 21:39:43;;;;;;;6.45;2.30;;;;;;;5.52;68.41;98738.63;10497418;28;20044;-65
2023/12/13 21:44:45;;;;;;;7.55;2.00;;;;;;;5.51;68.19;98746.50;10513376;28;20131;-65
2023/12/13 21:49:47;;;;;;;21.73;3.58;;;;;;;5.44;68.39;98755.56;10514462;28;20515;-65
2023/12/13 21:54:49;;;;;;;27.13;3.30;;;;;;;5.34;68.35;98762.19;10515688;28;20389;-65
2023/12/13 21:59:51;;;;;;;8.48;2.60;;;;;;;5.31;68.45;98768.38;10530942;27;20076;-65
2023/12/13 22:04:53;;;;;;;5.32;3.10;;;;;;;5.33;68.46;98778.69;10513524;28;20126;-65
2023/12/13 22:09:55;;;;;;;6.10;2.00;;;;;;;5.30;68.42;98782.28;10513633;28;20059;-65
2023/12/13 22:14:58;;;;;;;3.75;2.22;;;;;;;5.24;68.03;98787.81;10514793;28;20244;-64
2023/12/13 22:20:14;;;;;;;13.48;3.10;;;;;;;5.19;68.37;98794.97;10483927;28;20039;-65
2023/12/13 22:25:17;;;;;;;3.13;1.90;;;;;;;5.18;68.26;98793.31;10513620;28;20048;-65
2023/12/13 22:30:19;;;;;;;5.07;2.05;;;;;;;5.10;67.90;98802.44;10496326;28;20098;-65
2023/12/13 22:35:21;;;;;;;5.72;1.88;;;;;;;5.04;68.26;98816.59;10530323;28;20495;-64
2023/12/13 22:40:23;;;;;;;10.00;2.35;;;;;;;5.07;68.44;98825.91;10515107;28;20048;-65
2023/12/13 22:45:25;;;;;;;5.47;2.20;;;;;;;5.02;68.28;98826.19;10514445;28;20055;-64
2023/12/13 22:50:27;;;;;;;3.42;2.00;;;;;;;4.96;68.21;98834.31;10512817;28;20032;-65
2023/12/13 22:55:29;;;;;;;42.90;2.60;;;;;;;4.76;68.09;98844.06;10528361;27;20757;-65
2023/12/13 23:00:31;;;;;;;5.85;1.60;;;;;;;4.67;68.33;98859.16;10495507;28;20044;-64
2023/12/13 23:05:35;;;;;;;4.45;1.52;;;;;;;4.78;68.61;98866.34;10513562;28;20044;-64
2023/12/13 23:10:37;;;;;;;3.10;1.73;;;;;;;4.75;68.28;98869.13;10495541;28;20123;-64
2023/12/13 23:15:39;;;;;;;35.97;3.00;;;;;;;4.68;68.16;98873.78;10514496;28;20737;-64
2023/12/13 23:20:42;;;;;;;3.90;1.90;;;;;;;4.74;68.43;98869.22;10514730;28;20040;-65
2023/12/13 23:25:44;;;;;;;20.88;2.33;;;;;;;4.69;68.16;98882.41;10498104;28;20043;-64
2023/12/13 23:30:46;;;;;;;29.55;2.58;;;;;;;4.61;68.11;98880.22;10497064;28;20051;-64
2023/12/13 23:35:48;;;;;;;6.10;1.52;;;;;;;4.54;68.02;98881.44;10512012;28;20505;-64
2023/12/13 23:40:50;;;;;;;47.85;2.75;;;;;;;4.46;68.13;98886.16;10515613;28;20040;-64
2023/12/13 23:45:52;;;;;;;26.35;2.13;;;;;;;4.22;67.96;98897.78;10515617;28;20101;-64
2023/12/13 23:50:54;;;;;;;22.17;2.28;;;;;;;4.20;68.49;98907.38;10514263;28;20052;-64